createdAt,value
2019-05-25T00:00:52.636Z,6.92
2019-05-25T00:03:21.031Z,6.80
2019-05-25T00:05:49.399Z,7.25
2019-05-25T00:08:17.795Z,7.15
2019-05-25T00:10:46.162Z,8.13
2019-05-25T00:13:14.634Z,6.75
2019-05-25T00:15:43.018Z,6.30
2019-05-25T00:18:11.391Z,9.18
2019-05-25T00:20:39.774Z,6.72
2019-05-25T00:23:08.154Z,8.78
2019-05-25T00:25:36.527Z,6.83
2019-05-25T00:28:04.911Z,7.47
2019-05-25T00:30:33.278Z,6.90
2019-05-25T00:33:01.650Z,6.95
2019-05-25T00:35:29.943Z,6.17
2019-05-25T00:37:58.334Z,7.58
2019-05-25T00:40:26.707Z,7.67
2019-05-25T00:42:55.094Z,7.03
2019-05-25T00:45:23.539Z,7.58
2019-05-25T00:47:51.973Z,6.92
2019-05-25T00:50:20.368Z,9.18
2019-05-25T00:52:48.758Z,7.87
2019-05-25T00:55:17.134Z,6.45
2019-05-25T00:57:45.528Z,6.67
2019-05-25T01:00:13.968Z,7.28
2019-05-25T01:02:42.373Z,6.70
2019-05-25T01:05:11.321Z,6.90
2019-05-25T01:07:39.760Z,6.72
2019-05-25T01:10:08.215Z,6.40
2019-05-25T01:12:36.593Z,6.45
2019-05-25T01:15:06.018Z,7.00
2019-05-25T01:17:34.399Z,6.70
2019-05-25T01:20:02.783Z,8.55
2019-05-25T01:22:31.153Z,6.47
2019-05-25T01:24:59.459Z,8.23
2019-05-25T01:27:29.008Z,7.10
2019-05-25T01:29:57.395Z,7.37
2019-05-25T01:32:25.763Z,7.75
2019-05-25T01:34:54.244Z,7.40
2019-05-25T01:37:22.619Z,7.17
2019-05-25T01:39:51.032Z,8.55
2019-05-25T01:42:19.382Z,9.83
2019-05-25T01:44:47.776Z,8.50
2019-05-25T01:47:16.138Z,7.40
2019-05-25T01:49:44.529Z,6.92
2019-05-25T01:52:12.903Z,6.10
2019-05-25T01:54:41.286Z,7.10
2019-05-25T01:57:09.654Z,6.92
2019-05-25T01:59:38.041Z,6.90
2019-05-25T02:02:06.335Z,8.13
2019-05-25T02:04:34.727Z,7.67
2019-05-25T02:07:03.255Z,8.33
2019-05-25T02:09:31.653Z,6.97
2019-05-25T02:12:00.271Z,7.67
2019-05-25T02:14:28.827Z,7.08
2019-05-25T02:16:57.206Z,7.45
2019-05-25T02:19:25.631Z,8.90
2019-05-25T02:21:53.994Z,8.95
2019-05-25T02:24:22.384Z,7.97
2019-05-25T02:26:50.788Z,7.22
2019-05-25T02:29:19.348Z,7.20
2019-05-25T02:31:47.723Z,8.15
2019-05-25T02:34:16.105Z,7.67
2019-05-25T02:36:44.471Z,7.28
2019-05-25T02:39:12.928Z,7.65
2019-05-25T02:41:41.290Z,7.42
2019-05-25T02:44:09.828Z,8.73
2019-05-25T02:46:38.260Z,7.28
2019-05-25T02:49:06.631Z,8.05
2019-05-25T02:51:35.039Z,11.45
2019-05-25T02:54:03.399Z,8.80
2019-05-25T02:56:31.793Z,7.35
2019-05-25T02:59:00.103Z,9.15
2019-05-25T03:01:28.498Z,8.73
2019-05-25T03:03:56.892Z,7.17
2019-05-25T03:06:25.247Z,6.85
2019-05-25T03:08:53.922Z,7.72
2019-05-25T03:11:22.311Z,8.63
2019-05-25T03:13:50.695Z,7.75
2019-05-25T03:16:19.094Z,8.78
2019-05-25T03:18:47.467Z,8.05
2019-05-25T03:21:15.855Z,7.65
2019-05-25T03:23:44.228Z,7.35
2019-05-25T03:26:12.611Z,8.70
2019-05-25T03:28:40.979Z,7.80
2019-05-25T03:31:09.422Z,7.42
2019-05-25T03:33:37.861Z,8.08
2019-05-25T03:36:06.181Z,7.22
2019-05-25T03:38:34.542Z,7.90
2019-05-25T03:41:02.936Z,7.85
2019-05-25T03:43:31.399Z,8.80
2019-05-25T03:45:59.786Z,7.45
2019-05-25T03:48:28.142Z,8.40
2019-05-25T03:50:57.561Z,7.97
2019-05-25T03:53:25.856Z,8.53
2019-05-25T03:56:05.184Z,8.15
2019-05-25T03:58:24.334Z,8.30
2019-05-25T04:00:52.660Z,9.68
2019-05-25T04:03:21.027Z,7.10
2019-05-25T04:05:49.434Z,7.60
2019-05-25T04:08:17.961Z,10.72
2019-05-25T04:10:46.342Z,7.35
2019-05-25T04:13:14.708Z,7.55
2019-05-25T04:15:43.086Z,7.30
2019-05-25T04:18:11.467Z,7.17
2019-05-25T04:20:39.844Z,7.30
2019-05-25T04:23:08.249Z,7.80
2019-05-25T04:25:36.597Z,7.78
2019-05-25T04:28:04.977Z,7.65
2019-05-25T04:30:33.269Z,7.47
2019-05-25T04:33:01.654Z,8.88
2019-05-25T04:35:30.092Z,7.87
2019-05-25T04:37:58.439Z,7.85
2019-05-25T04:40:26.801Z,7.83
2019-05-25T04:42:55.199Z,7.17
2019-05-25T04:45:23.569Z,7.83
2019-05-25T04:47:51.967Z,8.50
2019-05-25T04:50:20.408Z,7.55
2019-05-25T04:52:48.799Z,8.93
2019-05-25T04:55:17.171Z,8.98
2019-05-25T04:57:45.622Z,9.00
2019-05-25T05:00:13.915Z,8.40
2019-05-25T05:02:42.323Z,8.38
2019-05-25T05:05:10.699Z,7.42
2019-05-25T05:07:39.067Z,8.35
2019-05-25T05:10:07.505Z,7.10
2019-05-25T05:12:35.897Z,7.65
2019-05-25T05:15:05.605Z,8.18
2019-05-25T05:17:34.011Z,7.72
2019-05-25T05:20:02.378Z,8.95
2019-05-25T05:22:30.783Z,7.72
2019-05-25T05:24:59.150Z,8.10
2019-05-25T05:27:27.555Z,6.72
2019-05-25T05:29:55.877Z,8.13
2019-05-25T05:32:27.584Z,10.00
2019-05-25T05:34:54.273Z,9.38
2019-05-25T05:37:23.240Z,8.58
2019-05-25T05:39:52.378Z,6.92
2019-05-25T05:42:20.763Z,9.30
2019-05-25T05:44:49.132Z,7.97
2019-05-25T05:47:17.524Z,7.55
2019-05-25T05:49:45.891Z,9.18
2019-05-25T05:52:14.279Z,7.80
2019-05-25T05:54:42.723Z,8.10
2019-05-25T05:57:12.840Z,7.75
2019-05-25T05:59:41.135Z,7.40
2019-05-25T06:02:09.536Z,8.25
2019-05-25T06:04:37.887Z,9.78
2019-05-25T06:07:06.308Z,7.95
2019-05-25T06:09:34.687Z,7.50
2019-05-25T06:12:03.050Z,7.75
2019-05-25T06:14:31.451Z,8.00
2019-05-25T06:16:59.830Z,8.38
2019-05-25T06:19:28.210Z,7.58
2019-05-25T06:21:56.509Z,7.78
2019-05-25T06:24:24.894Z,9.35
2019-05-25T06:26:53.271Z,9.20
2019-05-25T06:29:21.658Z,7.58
2019-05-25T06:31:50.031Z,7.40
2019-05-25T06:34:18.424Z,7.80
2019-05-25T06:36:46.787Z,7.70
2019-05-25T06:39:15.098Z,7.25
2019-05-25T06:41:43.391Z,8.25
2019-05-25T06:44:11.800Z,8.95
2019-05-25T06:46:40.165Z,7.95
2019-05-25T06:49:08.483Z,8.10
2019-05-25T06:51:36.851Z,7.55
2019-05-25T06:54:05.252Z,8.40
2019-05-25T06:56:33.632Z,9.33
2019-05-25T06:59:02.027Z,8.58
2019-05-25T07:01:30.402Z,7.87
2019-05-25T07:03:58.799Z,8.43
2019-05-25T07:06:27.180Z,8.70
2019-05-25T07:08:55.567Z,8.43
2019-05-25T07:11:23.944Z,8.45
2019-05-25T07:13:52.339Z,8.20
2019-05-25T07:16:20.712Z,8.58
2019-05-25T07:18:49.131Z,9.05
2019-05-25T07:21:17.483Z,10.60
2019-05-25T07:23:45.870Z,8.20
2019-05-25T07:26:14.250Z,9.13
2019-05-25T07:28:42.562Z,7.75
2019-05-25T07:31:10.959Z,8.25
2019-05-25T07:33:39.370Z,10.90
2019-05-25T07:36:08.165Z,10.45
2019-05-25T07:38:36.830Z,8.70
2019-05-25T07:41:05.216Z,8.60
2019-05-25T07:43:33.605Z,9.05
2019-05-25T07:46:01.982Z,8.85
2019-05-25T07:48:30.403Z,12.33
2019-05-25T07:50:58.768Z,8.28
2019-05-25T07:53:27.431Z,9.23
2019-05-25T07:55:55.799Z,10.53
2019-05-25T07:58:24.178Z,8.15
2019-05-25T08:00:52.571Z,12.20
2019-05-25T08:03:20.951Z,11.18
2019-05-25T08:05:49.356Z,9.18
2019-05-25T08:08:17.735Z,8.23
2019-05-25T08:10:46.123Z,9.55
2019-05-25T08:13:14.516Z,9.03
2019-05-25T08:15:44.697Z,9.58
2019-05-25T08:18:13.005Z,9.88
2019-05-25T08:20:41.528Z,9.55
2019-05-25T08:23:09.878Z,9.80
2019-05-25T08:25:38.190Z,10.85
2019-05-25T08:28:06.522Z,8.58
2019-05-25T08:30:34.855Z,8.78
2019-05-25T08:33:03.232Z,10.50
2019-05-25T08:35:31.613Z,8.98
2019-05-25T08:37:59.985Z,8.60
2019-05-25T08:40:28.527Z,8.05
2019-05-25T08:42:56.869Z,10.55
2019-05-25T08:45:26.143Z,10.82
2019-05-25T08:47:56.924Z,11.83
2019-05-25T08:50:37.072Z,16.67
2019-05-25T08:52:54.675Z,13.15
2019-05-25T08:55:23.084Z,10.63
2019-05-25T08:57:51.463Z,11.85
2019-05-25T09:00:19.868Z,9.38
2019-05-25T09:02:48.223Z,8.93
2019-05-25T09:05:16.717Z,8.75
2019-05-25T09:07:45.039Z,10.25
2019-05-25T09:10:13.437Z,9.65
2019-05-25T09:12:41.811Z,11.38
2019-05-25T09:15:10.294Z,11.68
2019-05-25T09:17:38.667Z,11.25
2019-05-25T09:20:10.064Z,8.35
2019-05-25T09:22:38.440Z,9.08
2019-05-25T09:25:07.251Z,7.53
2019-05-25T09:27:35.618Z,9.35
2019-05-25T09:30:08.368Z,8.13
2019-05-25T09:32:36.723Z,8.55
2019-05-25T09:35:07.734Z,10.40
2019-05-25T09:37:36.107Z,8.28
2019-05-25T09:40:05.136Z,7.72
2019-05-25T09:42:33.517Z,11.33
2019-05-25T09:45:01.909Z,8.08
2019-05-25T09:47:30.279Z,7.97
2019-05-25T09:49:58.647Z,9.88
2019-05-25T09:52:27.031Z,8.08
2019-05-25T09:54:55.822Z,9.38
2019-05-25T09:57:24.318Z,8.70
2019-05-25T09:59:52.674Z,10.43
2019-05-25T10:02:21.075Z,9.58
2019-05-25T10:04:49.491Z,7.50
2019-05-25T10:07:17.933Z,7.55
2019-05-25T10:09:46.337Z,6.65
2019-05-25T10:12:16.275Z,7.33
2019-05-25T10:14:44.914Z,8.20
2019-05-25T10:17:13.331Z,8.50
2019-05-25T10:19:41.944Z,9.80
2019-05-25T10:22:10.575Z,10.48
2019-05-25T10:24:38.919Z,8.00
2019-05-25T10:27:07.322Z,10.25
2019-05-25T10:29:37.596Z,9.55
2019-05-25T10:32:05.747Z,15.90
2019-05-25T10:34:34.108Z,9.35
2019-05-25T10:37:03.304Z,7.33
2019-05-25T10:39:31.700Z,9.60
2019-05-25T10:42:00.100Z,12.73
2019-05-25T10:44:28.473Z,8.15
2019-05-25T10:46:56.869Z,7.15
2019-05-25T10:49:25.252Z,6.40
2019-05-25T10:51:53.715Z,6.72
2019-05-25T10:54:22.180Z,6.65
2019-05-25T10:56:50.520Z,6.58
2019-05-25T10:59:19.275Z,7.15
2019-05-25T11:01:47.680Z,6.95
2019-05-25T11:04:16.033Z,6.28
2019-05-25T11:06:44.461Z,6.47
2019-05-25T11:09:12.990Z,7.35
2019-05-25T11:11:41.441Z,6.85
2019-05-25T11:14:09.785Z,7.03
2019-05-25T11:16:38.209Z,7.40
2019-05-25T11:19:06.581Z,7.25
2019-05-25T11:21:35.548Z,6.62
2019-05-25T11:24:04.188Z,7.35
2019-05-25T11:26:33.323Z,6.78
2019-05-25T11:29:02.413Z,5.97
2019-05-25T11:31:33.444Z,6.22
2019-05-25T11:34:01.866Z,5.97
2019-05-25T11:36:30.882Z,6.08
2019-05-25T11:38:59.603Z,7.03
2019-05-25T11:41:27.969Z,9.23
2019-05-25T11:43:56.674Z,6.90
2019-05-25T11:46:39.872Z,7.92
2019-05-25T11:49:22.040Z,6.90
2019-05-25T11:51:42.435Z,6.65
2019-05-25T11:54:11.438Z,8.73
2019-05-25T11:56:40.026Z,6.28
2019-05-25T11:59:08.490Z,6.65
2019-05-25T12:01:36.920Z,5.92
2019-05-25T12:04:05.266Z,8.00
2019-05-25T12:06:33.668Z,4.92
2019-05-25T12:09:02.039Z,5.90
2019-05-25T12:11:30.419Z,5.87
2019-05-25T12:13:58.836Z,6.03
2019-05-25T12:16:27.227Z,7.30
2019-05-25T12:18:55.578Z,6.80
2019-05-25T12:21:23.971Z,6.67
2019-05-25T12:23:52.330Z,7.80
2019-05-25T12:26:20.652Z,5.67
2019-05-25T12:28:49.110Z,6.62
2019-05-25T12:31:17.436Z,7.72
2019-05-25T12:33:45.807Z,5.45
2019-05-25T12:36:14.255Z,4.53
2019-05-25T12:38:42.643Z,5.78
2019-05-25T12:41:11.007Z,6.12
2019-05-25T12:43:39.876Z,5.10
2019-05-25T12:46:08.224Z,5.83
2019-05-25T12:48:36.634Z,5.92
2019-05-25T12:51:05.027Z,4.47
2019-05-25T12:53:33.424Z,7.83
2019-05-25T12:56:05.582Z,9.75
2019-05-25T12:58:34.179Z,5.87
2019-05-25T13:01:03.507Z,5.37
2019-05-25T13:03:31.938Z,5.47
2019-05-25T13:06:00.535Z,4.10
2019-05-25T13:08:28.923Z,3.62
2019-05-25T13:10:57.675Z,4.30
2019-05-25T13:13:26.196Z,3.65
2019-05-25T13:15:54.615Z,4.62
2019-05-25T13:18:23.010Z,3.30
2019-05-25T13:20:52.537Z,3.05
2019-05-25T13:23:20.923Z,3.55
2019-05-25T13:25:49.312Z,4.92
2019-05-25T13:28:17.951Z,3.25
2019-05-25T13:30:46.334Z,3.22
2019-05-25T13:33:14.767Z,5.12
2019-05-25T13:35:43.118Z,4.53
2019-05-25T13:38:11.680Z,4.75
2019-05-25T13:40:40.041Z,4.58
2019-05-25T13:43:08.430Z,5.30
2019-05-25T13:45:37.028Z,4.72
2019-05-25T13:48:05.615Z,5.00
2019-05-25T13:50:33.979Z,3.95
2019-05-25T13:53:02.371Z,4.00
2019-05-25T13:55:31.244Z,3.20
2019-05-25T13:57:59.687Z,5.72
2019-05-25T14:00:28.059Z,3.62
2019-05-25T14:02:56.476Z,4.83
2019-05-25T14:05:25.237Z,6.03
2019-05-25T14:07:54.100Z,4.00
2019-05-25T14:10:22.446Z,4.40
2019-05-25T14:12:50.835Z,3.52
2019-05-25T14:15:19.507Z,4.45
2019-05-25T14:17:47.931Z,3.67
2019-05-25T14:20:16.551Z,3.75
2019-05-25T14:22:44.998Z,5.17
2019-05-25T14:25:13.433Z,4.17
2019-05-25T14:27:41.810Z,4.15
2019-05-25T14:30:10.187Z,3.62
2019-05-25T14:32:38.617Z,4.62
2019-05-25T14:35:07.395Z,3.30
2019-05-25T14:37:35.767Z,3.65
2019-05-25T14:40:06.294Z,4.72
2019-05-25T14:42:34.663Z,3.90
2019-05-25T14:45:04.105Z,4.35
2019-05-25T14:47:32.464Z,3.47
2019-05-25T14:50:00.868Z,2.33
2019-05-25T14:52:29.238Z,3.60
2019-05-25T14:54:57.555Z,3.30
2019-05-25T14:57:26.009Z,4.22
2019-05-25T14:59:54.432Z,3.25
2019-05-25T15:02:22.805Z,4.12
2019-05-25T15:04:51.188Z,4.65
2019-05-25T15:07:19.567Z,4.95
2019-05-25T15:09:47.941Z,6.75
2019-05-25T15:12:16.237Z,7.47
2019-05-25T15:14:44.620Z,6.92
2019-05-25T15:17:13.036Z,9.40
2019-05-25T15:19:41.470Z,7.58
2019-05-25T15:22:10.310Z,5.58
2019-05-25T15:24:39.135Z,5.65
2019-05-25T15:27:07.868Z,5.40
2019-05-25T15:29:36.704Z,4.25
2019-05-25T15:32:18.694Z,4.28
2019-05-25T15:34:35.237Z,5.08
2019-05-25T15:37:06.021Z,5.25
2019-05-25T15:39:34.471Z,5.65
2019-05-25T15:42:02.915Z,5.60
2019-05-25T15:44:31.307Z,5.25
2019-05-25T15:46:59.678Z,4.92
2019-05-25T15:49:33.234Z,5.28
2019-05-25T15:51:58.084Z,6.65
2019-05-25T15:54:26.544Z,6.90
2019-05-25T15:56:54.962Z,7.00
2019-05-25T15:59:23.844Z,6.30
2019-05-25T16:01:52.749Z,8.78
2019-05-25T16:04:23.395Z,7.00
2019-05-25T16:06:51.877Z,7.95
2019-05-25T16:09:20.250Z,9.18
2019-05-25T16:11:48.607Z,9.68
2019-05-25T16:14:17.248Z,10.00
2019-05-25T16:16:45.726Z,8.35
2019-05-25T16:19:14.846Z,9.23
2019-05-25T16:21:43.183Z,9.78
2019-05-25T16:24:11.555Z,9.63
2019-05-25T16:26:46.027Z,9.93
2019-05-25T16:29:10.406Z,11.08
2019-05-25T16:31:38.781Z,10.48
2019-05-25T16:34:07.347Z,10.00
2019-05-25T16:36:35.943Z,8.68
2019-05-25T16:39:06.161Z,10.55
2019-05-25T16:41:34.614Z,10.00
2019-05-25T16:44:03.136Z,9.23
2019-05-25T16:46:31.707Z,8.63
2019-05-25T16:49:00.096Z,8.50
2019-05-25T16:51:28.495Z,8.70
2019-05-25T16:53:57.327Z,8.20
2019-05-25T16:56:26.493Z,8.50
2019-05-25T16:58:55.031Z,9.18
2019-05-25T17:01:23.499Z,8.60
2019-05-25T17:03:51.887Z,8.58
2019-05-25T17:06:20.589Z,8.10
2019-05-25T17:08:48.939Z,7.70
2019-05-25T17:11:17.313Z,8.98
2019-05-25T17:13:45.906Z,9.63
2019-05-25T17:16:33.767Z,9.80
2019-05-25T17:19:02.208Z,8.98
2019-05-25T17:21:30.643Z,10.23
2019-05-25T17:23:59.127Z,8.58
2019-05-25T17:26:27.526Z,8.40
2019-05-25T17:28:55.878Z,9.15
2019-05-25T17:31:24.291Z,6.33
2019-05-25T17:33:52.874Z,6.30
2019-05-25T17:36:21.277Z,6.20
2019-05-25T17:38:49.720Z,5.53
2019-05-25T17:41:18.109Z,5.80
2019-05-25T17:43:46.477Z,8.68
2019-05-25T17:46:14.886Z,6.53
2019-05-25T17:48:43.397Z,7.60
2019-05-25T17:51:11.799Z,8.48
2019-05-25T17:53:40.166Z,7.40
2019-05-25T17:56:08.581Z,7.85
2019-05-25T17:58:37.148Z,8.58
2019-05-25T18:01:05.549Z,7.95
2019-05-25T18:03:33.967Z,7.83
2019-05-25T18:06:03.597Z,6.78
2019-05-25T18:08:32.292Z,6.00
2019-05-25T18:11:02.054Z,5.17
2019-05-25T18:13:31.720Z,5.92
2019-05-25T18:16:00.181Z,6.28
2019-05-25T18:18:28.549Z,5.70
2019-05-25T18:20:56.958Z,4.62
2019-05-25T18:23:25.319Z,4.72
2019-05-25T18:25:53.763Z,4.90
2019-05-25T18:28:22.221Z,4.15
2019-05-25T18:30:50.692Z,4.40
2019-05-25T18:33:20.055Z,4.42
2019-05-25T18:35:48.399Z,4.87
2019-05-25T18:38:16.782Z,4.50
2019-05-25T18:40:45.231Z,4.30
2019-05-25T18:43:13.794Z,3.77
2019-05-25T18:45:42.182Z,4.55
2019-05-25T18:48:10.560Z,4.12
2019-05-25T18:50:38.994Z,3.90
2019-05-25T18:53:07.402Z,4.37
2019-05-25T18:55:35.765Z,5.28
2019-05-25T18:58:04.580Z,5.20
2019-05-25T19:00:32.945Z,4.50
2019-05-25T19:03:01.351Z,5.45
2019-05-25T19:05:29.717Z,5.10
2019-05-25T19:07:58.105Z,7.75
2019-05-25T19:10:26.991Z,5.05
2019-05-25T19:12:55.377Z,5.55
2019-05-25T19:15:23.816Z,6.05
2019-05-25T19:17:52.207Z,5.78
2019-05-25T19:20:21.362Z,4.83
2019-05-25T19:22:49.875Z,5.58
2019-05-25T19:25:20.289Z,4.72
2019-05-25T19:27:48.702Z,5.72
2019-05-25T19:30:17.174Z,5.75
2019-05-25T19:32:45.576Z,6.55
2019-05-25T19:35:13.955Z,5.92
2019-05-25T19:37:42.761Z,7.55
2019-05-25T19:40:11.219Z,5.83
2019-05-25T19:42:39.612Z,5.50
2019-05-25T19:45:08.229Z,4.85
2019-05-25T19:47:36.622Z,6.17
2019-05-25T19:50:07.757Z,5.60
2019-05-25T19:52:36.227Z,5.70
2019-05-25T19:55:06.324Z,6.22
2019-05-25T19:57:34.714Z,5.92
2019-05-25T20:00:04.723Z,6.10
2019-05-25T20:02:33.113Z,6.78
2019-05-25T20:05:15.093Z,7.00
2019-05-25T20:07:31.530Z,6.70
2019-05-25T20:09:59.907Z,6.20
2019-05-25T20:12:28.345Z,6.65
2019-05-25T20:14:56.747Z,6.92
2019-05-25T20:17:25.124Z,6.97
2019-05-25T20:19:53.505Z,6.00
2019-05-25T20:22:21.807Z,6.97
2019-05-25T20:24:50.395Z,7.85
2019-05-25T20:27:18.786Z,6.58
2019-05-25T20:29:47.182Z,6.72
2019-05-25T20:32:15.559Z,6.25
2019-05-25T20:34:45.797Z,9.18
2019-05-25T20:37:13.990Z,7.28
2019-05-25T20:39:42.403Z,6.40
2019-05-25T20:42:14.265Z,5.60
2019-05-25T20:44:40.831Z,5.83
2019-05-25T20:47:09.222Z,7.25
2019-05-25T20:49:37.622Z,6.22
2019-05-25T20:52:06.009Z,5.92
2019-05-25T20:54:34.418Z,7.75
2019-05-25T20:57:02.818Z,6.42
2019-05-25T20:59:31.212Z,7.00
2019-05-25T21:01:59.590Z,7.50
2019-05-25T21:04:27.994Z,9.45
2019-05-25T21:06:56.447Z,7.08
2019-05-25T21:09:24.859Z,6.87
2019-05-25T21:11:55.781Z,7.62
2019-05-25T21:14:23.288Z,8.35
2019-05-25T21:16:51.658Z,7.65
2019-05-25T21:19:20.043Z,7.37
2019-05-25T21:21:48.425Z,7.72
2019-05-25T21:24:16.839Z,8.28
2019-05-25T21:26:45.209Z,7.62
2019-05-25T21:29:13.564Z,7.15
2019-05-25T21:31:41.927Z,7.62
2019-05-25T21:34:10.334Z,7.40
2019-05-25T21:36:38.717Z,7.42
2019-05-25T21:39:07.347Z,8.18
2019-05-25T21:41:35.727Z,8.28
2019-05-25T21:44:04.187Z,9.05
2019-05-25T21:46:32.586Z,7.40
2019-05-25T21:49:00.949Z,8.95
2019-05-25T21:51:29.327Z,9.08
2019-05-25T21:53:57.698Z,8.60
2019-05-25T21:56:26.098Z,8.95
2019-05-25T21:58:54.467Z,8.20
2019-05-25T22:01:22.862Z,8.45
2019-05-25T22:03:51.362Z,8.00
2019-05-25T22:06:24.419Z,8.83
2019-05-25T22:08:49.944Z,8.60
2019-05-25T22:11:18.322Z,8.18
2019-05-25T22:13:46.690Z,7.42
2019-05-25T22:16:15.089Z,7.37
2019-05-25T22:18:43.523Z,7.28
2019-05-25T22:21:11.917Z,8.93
2019-05-25T22:23:40.293Z,9.98
2019-05-25T22:26:08.675Z,9.75
2019-05-25T22:28:44.760Z,9.68
2019-05-25T22:31:07.090Z,9.03
2019-05-25T22:33:35.476Z,10.32
2019-05-25T22:36:03.871Z,7.50
2019-05-25T22:38:32.235Z,8.28
2019-05-25T22:41:00.627Z,7.60
2019-05-25T22:43:28.994Z,7.40
2019-05-25T22:45:57.326Z,8.05
2019-05-25T22:48:25.632Z,7.75
2019-05-25T22:50:54.099Z,8.28
2019-05-25T22:53:22.474Z,8.55
2019-05-25T22:55:50.863Z,8.45
2019-05-25T22:58:19.254Z,8.13
2019-05-25T23:00:47.633Z,9.13
2019-05-25T23:03:16.003Z,10.20
2019-05-25T23:05:44.400Z,9.05
2019-05-25T23:08:12.771Z,9.95
2019-05-25T23:10:41.176Z,9.75
2019-05-25T23:13:09.548Z,8.25
2019-05-25T23:15:37.957Z,7.50
2019-05-25T23:18:06.338Z,8.28
2019-05-25T23:20:36.606Z,9.08
2019-05-25T23:23:04.743Z,8.48
2019-05-25T23:25:34.090Z,8.00
2019-05-25T23:28:02.454Z,9.58
2019-05-25T23:30:30.850Z,8.73
2019-05-25T23:32:59.217Z,7.87
2019-05-25T23:35:28.873Z,9.83
2019-05-25T23:37:57.239Z,8.78
2019-05-25T23:40:25.631Z,8.65
2019-05-25T23:42:54.020Z,9.08
2019-05-25T23:45:22.400Z,10.08
2019-05-25T23:47:50.786Z,9.75
2019-05-25T23:50:19.327Z,8.88
2019-05-25T23:52:47.781Z,9.13
2019-05-25T23:55:16.193Z,9.28
2019-05-25T23:57:44.579Z,10.03
